createdAt,value
2022-08-03T00:01:46.127Z,95640.28
2022-08-03T00:04:34.044Z,95627.66
2022-08-03T00:07:20.414Z,95624.06
2022-08-03T00:10:06.313Z,95623.69
2022-08-03T00:12:53.144Z,95631.94
2022-08-03T00:15:41.138Z,95622.09
2022-08-03T00:18:26.874Z,95619.34
2022-08-03T00:21:12.843Z,95623.28
2022-08-03T00:23:59.026Z,95626.03
2022-08-03T00:26:45.192Z,95631.13
2022-08-03T00:29:31.391Z,95622.06
2022-08-03T00:32:17.464Z,95621.22
2022-08-03T00:35:08.040Z,95616.47
2022-08-03T00:37:56.100Z,95613.31
2022-08-03T00:40:45.202Z,95616.50
2022-08-03T00:43:31.228Z,95613.72
2022-08-03T00:46:21.403Z,95630.25
2022-08-03T00:49:08.179Z,95626.31
2022-08-03T00:51:54.153Z,95619.63
2022-08-03T00:54:40.667Z,95616.84
2022-08-03T00:57:26.577Z,95617.63
2022-08-03T01:00:15.927Z,95625.91
2022-08-03T01:03:02.854Z,95629.03
2022-08-03T01:06:19.736Z,95634.53
2022-08-03T01:09:56.138Z,95636.09
2022-08-03T01:12:51.872Z,95631.78
2022-08-03T01:15:48.108Z,95631.38
2022-08-03T01:19:22.320Z,95627.41
2022-08-03T01:22:30.425Z,95634.13
2022-08-03T01:25:22.579Z,95632.13
2022-08-03T01:28:36.473Z,95627.41
2022-08-03T01:31:33.650Z,95625.03
2022-08-03T01:34:48.221Z,95630.53
2022-08-03T01:37:42.248Z,95627.38
2022-08-03T01:40:27.993Z,95629.69
2022-08-03T01:44:27.983Z,95626.56
2022-08-03T01:46:23.725Z,95622.63
2022-08-03T01:49:11.778Z,95617.13
2022-08-03T01:52:05.007Z,95619.47
2022-08-03T01:54:52.744Z,95617.09
2022-08-03T01:58:06.126Z,95618.69
2022-08-03T02:00:47.250Z,95611.56
2022-08-03T02:03:37.061Z,95617.91
2022-08-03T02:06:59.885Z,95618.66
2022-08-03T02:09:30.303Z,95607.63
2022-08-03T02:12:16.519Z,95619.44
2022-08-03T02:15:03.831Z,95614.72
2022-08-03T02:17:50.568Z,95613.16
2022-08-03T02:20:39.045Z,95610.78
2022-08-03T02:23:24.873Z,95604.47
2022-08-03T02:26:14.234Z,95600.53
2022-08-03T02:29:15.110Z,95604.09
2022-08-03T02:32:04.473Z,95603.66
2022-08-03T02:35:00.942Z,95612.31
2022-08-03T02:37:56.631Z,95602.06
2022-08-03T02:40:46.483Z,95606.38
2022-08-03T02:43:56.832Z,95598.06
2022-08-03T02:46:44.840Z,95604.31
2022-08-03T02:49:42.055Z,95583.00
2022-08-03T02:52:37.794Z,95597.28
2022-08-03T02:55:25.586Z,95607.13
2022-08-03T02:58:14.068Z,95609.09
2022-08-03T03:01:00.447Z,95610.28
2022-08-03T03:03:46.228Z,95612.22
2022-08-03T03:06:34.662Z,95609.81
2022-08-03T03:09:22.217Z,95606.66
2022-08-03T03:12:08.974Z,95605.88
2022-08-03T03:14:58.030Z,95610.56
2022-08-03T03:17:44.606Z,95607.41
2022-08-03T03:20:32.307Z,95602.66
2022-08-03T03:23:18.223Z,95609.78
2022-08-03T03:26:04.981Z,95607.41
2022-08-03T03:28:51.027Z,95607.34
2022-08-03T03:31:37.345Z,95605.78
2022-08-03T03:34:25.302Z,95600.25
2022-08-03T03:37:11.329Z,95607.34
2022-08-03T03:39:57.315Z,95598.69
2022-08-03T03:42:43.155Z,95612.03
2022-08-03T03:45:29.357Z,95620.72
2022-08-03T03:48:15.702Z,95608.91
2022-08-03T03:51:02.122Z,95619.13
2022-08-03T03:54:01.376Z,95619.06
2022-08-03T03:56:53.996Z,95624.63
2022-08-03T03:59:42.853Z,95617.47
2022-08-03T04:02:28.909Z,95626.56
2022-08-03T04:05:37.742Z,95625.41
2022-08-03T04:08:44.459Z,95624.63
2022-08-03T04:11:39.773Z,95614.31
2022-08-03T04:14:33.207Z,95630.13
2022-08-03T04:17:22.588Z,95632.47
2022-08-03T04:20:11.954Z,95630.13
2022-08-03T04:23:00.288Z,95633.28
2022-08-03T04:25:46.752Z,95620.66
2022-08-03T04:28:32.864Z,95630.16
2022-08-03T04:31:21.329Z,95629.38
2022-08-03T04:34:07.930Z,95624.63
2022-08-03T04:36:58.773Z,95632.53
2022-08-03T04:39:44.795Z,95640.41
2022-08-03T04:42:32.258Z,95627.41
2022-08-03T04:45:21.888Z,95633.72
2022-08-03T04:48:10.806Z,95616.75
2022-08-03T04:51:00.924Z,95629.38
2022-08-03T04:53:47.093Z,95628.19
2022-08-03T04:56:34.954Z,95639.22
2022-08-03T04:59:24.431Z,95634.88
2022-08-03T05:02:10.492Z,95639.59
2022-08-03T05:04:56.650Z,95648.28
2022-08-03T05:07:43.328Z,95649.88
2022-08-03T05:10:29.926Z,95651.47
2022-08-03T05:13:15.702Z,95653.03
2022-08-03T05:16:06.204Z,95656.97
2022-08-03T05:18:58.653Z,95658.91
2022-08-03T05:21:52.448Z,95654.19
2022-08-03T05:24:42.443Z,95637.19
2022-08-03T05:27:35.006Z,95653.00
2022-08-03T05:30:34.403Z,95660.84
2022-08-03T05:33:20.438Z,95661.66
2022-08-03T05:36:06.576Z,95661.25
2022-08-03T05:38:53.221Z,95660.84
2022-08-03T05:41:39.099Z,95659.25
2022-08-03T05:44:25.792Z,95664.41
2022-08-03T05:47:20.046Z,95671.16
2022-08-03T05:50:13.007Z,95653.75
2022-08-03T05:52:59.758Z,95678.25
2022-08-03T05:55:51.307Z,95682.25
2022-08-03T05:58:48.417Z,95670.84
2022-08-03T06:01:34.310Z,95664.19
2022-08-03T06:04:20.408Z,95669.75
2022-08-03T06:07:06.221Z,95676.50
2022-08-03T06:10:34.492Z,95674.91
2022-08-03T06:13:09.431Z,95681.22
2022-08-03T06:15:55.183Z,95684.81
2022-08-03T06:18:41.213Z,95682.47
2022-08-03T06:21:27.171Z,95686.81
2022-08-03T06:24:13.349Z,95684.09
2022-08-03T06:27:01.480Z,95677.81
2022-08-03T06:29:47.112Z,95684.13
2022-08-03T06:32:33.828Z,95683.34
2022-08-03T06:35:19.983Z,95681.78
2022-08-03T06:38:05.935Z,95671.91
2022-08-03T06:40:57.161Z,95677.47
2022-08-03T06:44:03.392Z,95676.28
2022-08-03T06:46:55.918Z,95679.84
2022-08-03T06:50:05.581Z,95664.47
2022-08-03T06:52:51.543Z,95683.47
2022-08-03T06:55:41.811Z,95671.66
2022-08-03T06:58:29.585Z,95672.84
2022-08-03T07:01:18.982Z,95671.69
2022-08-03T07:04:06.214Z,95665.38
2022-08-03T07:06:52.474Z,95674.53
2022-08-03T07:09:38.473Z,95675.72
2022-08-03T07:12:28.566Z,95678.88
2022-08-03T07:15:20.600Z,95678.88
2022-08-03T07:18:27.636Z,95670.25
2022-08-03T07:21:17.126Z,95675.38
2022-08-03T07:24:03.289Z,95674.19
2022-08-03T07:26:49.129Z,95675.41
2022-08-03T07:29:35.018Z,95677.00
2022-08-03T07:32:21.112Z,95669.47
2022-08-03T07:35:08.623Z,95668.72
2022-08-03T07:37:55.245Z,95675.81
2022-08-03T07:40:45.997Z,95675.03
2022-08-03T07:43:32.195Z,95660.84
2022-08-03T07:46:18.010Z,95665.59
2022-08-03T07:49:03.840Z,95667.22
2022-08-03T07:52:09.771Z,95665.59
2022-08-03T07:54:55.747Z,95672.31
2022-08-03T07:57:41.617Z,95675.09
2022-08-03T08:00:27.834Z,95671.16
2022-08-03T08:03:13.725Z,95668.81
2022-08-03T08:05:59.929Z,95673.50
2022-08-03T08:08:46.200Z,95667.22
2022-08-03T08:11:34.880Z,95664.84
2022-08-03T08:14:24.360Z,95656.16
2022-08-03T08:17:10.820Z,95667.59
2022-08-03T08:19:56.950Z,95664.06
2022-08-03T08:22:44.112Z,95666.81
2022-08-03T08:25:31.671Z,95664.03
2022-08-03T08:28:30.226Z,95667.59
2022-08-03T08:31:18.889Z,95660.09
2022-08-03T08:34:05.776Z,95670.38
2022-08-03T08:36:51.766Z,95668.00
2022-08-03T08:39:37.677Z,95667.59
2022-08-03T08:42:23.332Z,95660.09
2022-08-03T08:45:10.220Z,95659.28
2022-08-03T08:48:01.053Z,95664.03
2022-08-03T08:50:49.187Z,95661.69
2022-08-03T08:53:37.044Z,95662.47
2022-08-03T08:56:25.651Z,95656.16
2022-08-03T08:59:11.879Z,95655.38
2022-08-03T09:01:58.906Z,95649.00
2022-08-03T09:04:45.694Z,95639.53
2022-08-03T09:07:31.895Z,95645.06
2022-08-03T09:10:24.698Z,95642.25
2022-08-03T09:13:13.027Z,95646.59
2022-08-03T09:16:14.003Z,95643.41
2022-08-03T09:19:13.002Z,95641.44
2022-08-03T09:22:13.548Z,95645.00
2022-08-03T09:25:23.435Z,95644.97
2022-08-03T09:29:00.086Z,95646.53
2022-08-03T09:31:32.195Z,95632.66
2022-08-03T09:34:18.279Z,95640.19
2022-08-03T09:37:15.760Z,95642.94
2022-08-03T09:40:01.979Z,95646.47
2022-08-03T09:42:57.775Z,95635.78
2022-08-03T09:45:46.710Z,95634.56
2022-08-03T09:48:37.397Z,95633.75
2022-08-03T09:51:33.161Z,95611.66
2022-08-03T09:54:33.301Z,95632.13
2022-08-03T09:57:33.350Z,95636.06
2022-08-03T10:00:19.885Z,95648.72
2022-08-03T10:03:06.000Z,95630.53
2022-08-03T10:05:54.943Z,95632.09
2022-08-03T10:09:07.499Z,95635.25
2022-08-03T10:11:53.735Z,95629.72
2022-08-03T10:14:42.023Z,95637.19
2022-08-03T10:17:28.155Z,95632.06
2022-08-03T10:20:13.943Z,95625.72
2022-08-03T10:23:00.420Z,95629.66
2022-08-03T10:25:55.926Z,95625.66
2022-08-03T10:28:47.783Z,95619.72
2022-08-03T10:31:57.461Z,95626.44
2022-08-03T10:34:44.862Z,95614.53
2022-08-03T10:37:33.455Z,95606.59
2022-08-03T10:40:39.499Z,95611.72
2022-08-03T10:43:46.508Z,95594.66
2022-08-03T10:46:33.931Z,95606.44
2022-08-03T10:49:33.736Z,95606.41
2022-08-03T10:52:31.827Z,95601.97
2022-08-03T10:55:59.841Z,95596.75
2022-08-03T10:58:57.184Z,95593.53
2022-08-03T11:01:58.745Z,95592.66
2022-08-03T11:04:46.908Z,95585.53
2022-08-03T11:07:32.760Z,95589.44
2022-08-03T11:10:47.345Z,95596.56
2022-08-03T11:13:34.203Z,95589.44
2022-08-03T11:16:23.485Z,95593.38
2022-08-03T11:19:11.909Z,95581.09
2022-08-03T11:21:59.534Z,95585.03
2022-08-03T11:24:47.608Z,95579.06
2022-08-03T11:27:34.257Z,95566.38
2022-08-03T11:30:19.943Z,95569.50
2022-08-03T11:33:05.811Z,95558.38
2022-08-03T11:36:02.576Z,95557.53
2022-08-03T11:39:16.684Z,95559.72
2022-08-03T11:42:23.430Z,95556.03
2022-08-03T11:45:10.114Z,95553.56
2022-08-03T11:47:56.235Z,95554.66
2022-08-03T11:50:45.371Z,95540.38
2022-08-03T11:53:31.871Z,95537.94
2022-08-03T11:56:17.715Z,95540.28
2022-08-03T11:59:19.107Z,95533.91
2022-08-03T12:02:08.166Z,95532.19
2022-08-03T12:04:58.954Z,95536.78
2022-08-03T12:08:04.316Z,95527.09
2022-08-03T12:10:54.253Z,95532.13
2022-08-03T12:14:35.762Z,95530.09
2022-08-03T12:16:54.989Z,95529.31
2022-08-03T12:19:44.190Z,95533.22
2022-08-03T12:22:38.351Z,95528.50
2022-08-03T12:25:39.363Z,95525.47
2022-08-03T12:28:36.060Z,95527.84
2022-08-03T12:31:24.967Z,95527.88
2022-08-03T12:34:11.479Z,95531.16
2022-08-03T12:36:57.929Z,95518.84
2022-08-03T12:40:02.962Z,95525.09
2022-08-03T12:42:51.638Z,95516.59
2022-08-03T12:45:37.713Z,95514.88
2022-08-03T12:48:23.765Z,95512.66
2022-08-03T12:51:14.052Z,95506.47
2022-08-03T12:54:00.930Z,95503.75
2022-08-03T12:57:15.979Z,95500.41
2022-08-03T13:00:28.707Z,95488.56
2022-08-03T13:03:41.833Z,95490.28
2022-08-03T13:06:25.106Z,95483.56
2022-08-03T13:09:10.944Z,95477.03
2022-08-03T13:12:10.773Z,95470.63
2022-08-03T13:14:59.098Z,95476.06
2022-08-03T13:17:44.831Z,95475.16
2022-08-03T13:20:30.826Z,95464.34
2022-08-03T13:23:22.591Z,95471.34
2022-08-03T13:26:09.686Z,95465.53
2022-08-03T13:28:55.941Z,95469.88
2022-08-03T13:31:50.524Z,95458.81
2022-08-03T13:34:38.757Z,95465.19
2022-08-03T13:37:25.710Z,95455.28
2022-08-03T13:40:11.971Z,95451.41
2022-08-03T13:43:00.656Z,95460.13
2022-08-03T13:45:51.268Z,95449.97
2022-08-03T13:48:40.736Z,95454.84
2022-08-03T13:51:27.010Z,95455.31
2022-08-03T13:54:13.013Z,95446.31
2022-08-03T13:58:01.040Z,95447.28
2022-08-03T14:00:06.700Z,95454.69
2022-08-03T14:02:54.001Z,95450.00
2022-08-03T14:05:45.590Z,95445.97
2022-08-03T14:08:31.862Z,95445.72
2022-08-03T14:11:18.413Z,95438.91
2022-08-03T14:14:04.496Z,95449.16
2022-08-03T14:16:50.511Z,95434.78
2022-08-03T14:19:52.420Z,95441.09
2022-08-03T14:22:39.859Z,95435.78
2022-08-03T14:25:25.792Z,95447.78
2022-08-03T14:28:11.912Z,95427.31
2022-08-03T14:30:58.026Z,95433.16
2022-08-03T14:33:44.109Z,95432.72
2022-08-03T14:36:29.950Z,95429.56
2022-08-03T14:39:16.003Z,95417.66
2022-08-03T14:42:02.181Z,95432.59
2022-08-03T14:44:48.252Z,95436.28
2022-08-03T14:47:34.526Z,95427.72
2022-08-03T14:50:44.382Z,95428.25
2022-08-03T14:53:31.476Z,95424.78
2022-08-03T14:56:17.493Z,95431.97
2022-08-03T14:59:03.667Z,95417.78
2022-08-03T15:02:03.342Z,95421.13
2022-08-03T15:04:52.901Z,95427.13
2022-08-03T15:07:39.247Z,95426.91
2022-08-03T15:10:27.107Z,95419.84
2022-08-03T15:13:26.936Z,95421.25
2022-08-03T15:16:12.809Z,95423.78
2022-08-03T15:18:58.622Z,95423.34
2022-08-03T15:21:47.030Z,95425.13
2022-08-03T15:24:33.715Z,95411.69
2022-08-03T15:27:19.992Z,95420.78
2022-08-03T15:30:10.109Z,95416.97
2022-08-03T15:32:56.526Z,95416.25
2022-08-03T15:35:42.827Z,95419.06
2022-08-03T15:38:28.788Z,95421.28
2022-08-03T15:41:14.813Z,95418.22
2022-08-03T15:44:06.203Z,95418.97
2022-08-03T15:46:55.291Z,95411.31
2022-08-03T15:49:41.557Z,95418.69
2022-08-03T15:52:27.982Z,95414.97
2022-08-03T15:55:15.473Z,95410.19
2022-08-03T15:59:04.666Z,95408.28
2022-08-03T16:01:09.272Z,95417.03
2022-08-03T16:03:55.287Z,95414.81
2022-08-03T16:06:42.578Z,95407.88
2022-08-03T16:09:43.447Z,95406.81
2022-08-03T16:12:29.864Z,95420.13
2022-08-03T16:15:16.402Z,95419.88
2022-08-03T16:18:02.434Z,95421.47
2022-08-03T16:20:48.723Z,95417.25
2022-08-03T16:23:37.879Z,95413.09
2022-08-03T16:26:23.688Z,95422.88
2022-08-03T16:29:23.262Z,95422.75
2022-08-03T16:32:11.008Z,95417.91
2022-08-03T16:34:56.933Z,95427.22
2022-08-03T16:37:54.593Z,95422.91
2022-08-03T16:40:42.802Z,95422.59
2022-08-03T16:43:28.969Z,95432.66
2022-08-03T16:46:14.869Z,95436.56
2022-08-03T16:49:01.335Z,95434.25
2022-08-03T16:51:50.098Z,95442.50
2022-08-03T16:54:36.807Z,95441.25
2022-08-03T16:57:59.343Z,95448.69
2022-08-03T17:00:41.497Z,95445.88
2022-08-03T17:03:27.843Z,95452.25
2022-08-03T17:06:34.294Z,95452.09
2022-08-03T17:09:21.122Z,95456.31
2022-08-03T17:12:10.836Z,95452.56
2022-08-03T17:14:57.494Z,95464.72
2022-08-03T17:18:01.597Z,95474.63
2022-08-03T17:20:50.983Z,95473.34
2022-08-03T17:23:52.610Z,95477.50
2022-08-03T17:26:46.416Z,95483.31
2022-08-03T17:29:45.227Z,95474.81
2022-08-03T17:32:33.962Z,95474.22
2022-08-03T17:35:20.871Z,95486.31
2022-08-03T17:38:11.917Z,95493.72
2022-08-03T17:41:00.346Z,95496.31
2022-08-03T17:44:15.244Z,95503.66
2022-08-03T17:47:02.666Z,95498.28
2022-08-03T17:49:49.407Z,95502.72
2022-08-03T17:52:41.602Z,95498.53
2022-08-03T17:55:57.653Z,95507.38
2022-08-03T17:59:08.727Z,95505.63
2022-08-03T18:02:47.483Z,95507.25
2022-08-03T18:06:10.929Z,95509.06
2022-08-03T18:08:50.211Z,95516.28
2022-08-03T18:11:39.021Z,95519.16
2022-08-03T18:14:57.731Z,95517.69
2022-08-03T18:17:58.153Z,95526.13
2022-08-03T18:20:48.693Z,95522.66
2022-08-03T18:23:36.743Z,95523.56
2022-08-03T18:26:23.924Z,95523.66
2022-08-03T18:29:12.614Z,95535.69
2022-08-03T18:32:06.063Z,95535.38
2022-08-03T18:34:58.187Z,95541.00
2022-08-03T18:37:51.802Z,95535.56
2022-08-03T18:40:38.534Z,95547.50
2022-08-03T18:43:46.759Z,95545.63
2022-08-03T18:47:06.918Z,95546.47
2022-08-03T18:50:03.032Z,95553.31
2022-08-03T18:53:16.731Z,95554.56
2022-08-03T18:56:19.026Z,95542.09
2022-08-03T18:59:30.557Z,95549.59
2022-08-03T19:02:34.204Z,95561.22
2022-08-03T19:05:52.922Z,95553.34
2022-08-03T19:08:44.696Z,95570.50
2022-08-03T19:12:26.179Z,95571.84
2022-08-03T19:15:10.515Z,95580.66
2022-08-03T19:17:59.074Z,95572.78
2022-08-03T19:20:46.746Z,95572.91
2022-08-03T19:23:34.356Z,95579.28
2022-08-03T19:26:31.227Z,95578.16
2022-08-03T19:29:18.153Z,95584.22
2022-08-03T19:32:09.128Z,95582.28
2022-08-03T19:34:55.970Z,95600.63
2022-08-03T19:37:44.568Z,95596.28
2022-08-03T19:40:33.326Z,95594.75
2022-08-03T19:43:53.658Z,95597.66
2022-08-03T19:47:11.365Z,95600.91
2022-08-03T19:50:13.851Z,95603.69
2022-08-03T19:53:04.219Z,95608.47
2022-08-03T19:55:54.498Z,95614.84
2022-08-03T19:58:40.792Z,95610.13
2022-08-03T20:01:28.168Z,95610.97
2022-08-03T20:04:15.676Z,95617.31
2022-08-03T20:07:04.559Z,95618.16
2022-08-03T20:09:54.372Z,95614.28
2022-08-03T20:12:46.723Z,95616.66
2022-08-03T20:15:33.041Z,95621.13
2022-08-03T20:18:27.280Z,95623.13
2022-08-03T20:21:15.673Z,95620.78
2022-08-03T20:24:24.746Z,95629.13
2022-08-03T20:27:15.993Z,95638.28
2022-08-03T20:30:07.467Z,95629.59
2022-08-03T20:32:54.628Z,95625.66
2022-08-03T20:35:45.925Z,95633.66
2022-08-03T20:38:43.579Z,95629.72
2022-08-03T20:41:33.152Z,95631.31
2022-08-03T20:44:25.627Z,95637.31
2022-08-03T20:47:14.062Z,95637.34
2022-08-03T20:50:11.068Z,95626.69
2022-08-03T20:52:59.282Z,95627.50
2022-08-03T20:56:02.295Z,95624.34
2022-08-03T20:58:51.313Z,95633.88
2022-08-03T21:01:38.121Z,95630.38
2022-08-03T21:04:24.175Z,95631.59
2022-08-03T21:07:16.905Z,95642.69
2022-08-03T21:10:06.024Z,95645.91
2022-08-03T21:13:14.984Z,95639.59
2022-08-03T21:16:13.808Z,95650.75
2022-08-03T21:19:03.903Z,95658.69
2022-08-03T21:21:53.422Z,95653.97
2022-08-03T21:24:40.778Z,95650.44
2022-08-03T21:27:30.287Z,95652.44
2022-08-03T21:30:16.244Z,95658.00
2022-08-03T21:33:02.381Z,95655.63
2022-08-03T21:35:48.760Z,95662.81
2022-08-03T21:38:36.058Z,95664.00
2022-08-03T21:41:22.088Z,95667.56
2022-08-03T21:44:08.682Z,95666.81
2022-08-03T21:46:55.481Z,95674.72
2022-08-03T21:50:05.456Z,95677.91
2022-08-03T21:52:54.408Z,95674.00
2022-08-03T21:55:43.663Z,95681.13
2022-08-03T21:58:33.964Z,95679.59
2022-08-03T22:01:22.745Z,95679.22
2022-08-03T22:04:12.025Z,95685.94
2022-08-03T22:07:19.934Z,95680.44
2022-08-03T22:10:06.794Z,95689.94
2022-08-03T22:12:52.885Z,95685.19
2022-08-03T22:15:38.608Z,95688.41
2022-08-03T22:18:24.510Z,95694.72
2022-08-03T22:21:12.126Z,95693.56
2022-08-03T22:23:59.950Z,95693.16
2022-08-03T22:27:06.472Z,95695.53
2022-08-03T22:29:53.321Z,95696.31
2022-08-03T22:32:40.658Z,95691.63
2022-08-03T22:35:27.868Z,95693.19
2022-08-03T22:38:13.828Z,95677.38
2022-08-03T22:41:00.012Z,95685.31
2022-08-03T22:43:45.919Z,95693.22
2022-08-03T22:46:33.170Z,95676.63
2022-08-03T22:49:19.883Z,95686.94
2022-08-03T22:52:06.240Z,95693.25
2022-08-03T22:54:52.634Z,95683.75
2022-08-03T22:57:39.101Z,95689.31
2022-08-03T23:00:25.792Z,95683.41
2022-08-03T23:03:12.351Z,95683.78
2022-08-03T23:06:03.685Z,95687.75
2022-08-03T23:08:50.766Z,95680.63
2022-08-03T23:11:45.370Z,95683.41
2022-08-03T23:14:36.770Z,95669.59
2022-08-03T23:17:24.359Z,95675.13
2022-08-03T23:20:10.257Z,95671.56
2022-08-03T23:22:57.751Z,95678.28
2022-08-03T23:25:43.721Z,95675.50
2022-08-03T23:28:32.354Z,95674.31
2022-08-03T23:31:18.412Z,95674.72
2022-08-03T23:34:23.084Z,95681.44
2022-08-03T23:37:09.508Z,95679.06
2022-08-03T23:39:57.271Z,95679.47
2022-08-03T23:42:45.386Z,95677.09
2022-08-03T23:45:34.999Z,95671.16
2022-08-03T23:48:21.126Z,95674.34
2022-08-03T23:51:11.912Z,95674.34
2022-08-03T23:54:04.291Z,95676.69
2022-08-03T23:57:08.186Z,95673.53
